Weather History for Athens, OH

Change the Weather History Date:

Thursday, March 7, 2013

  Actual Average (KPKB) Record (KPKB)
Temperature  
Mean Temperature 36 °F 40 °F  
Max Temperature 39 °F 51 °F 80 °F (2009)
Min Temperature 32 °F 30 °F 4 °F (1890)
Degree Days  
Heating Degree Days 30 25  
Month to date heating degree days 180  
Since 1 July heating degree days 3970  
Cooling Degree Days 0 0  
Month to date cooling degree days 0  
Year to date cooling degree days 0  
Moisture  
Dew Point 28 °F    
Average Humidity 76    
Maximum Humidity 87    
Minimum Humidity 61    
Precipitation  
Precipitation 0.00 in 0.12 in 0.48 in (2008)
Month to date precipitation 0.76  
Year to date precipitation 6.41  
Sea Level Pressure  
Sea Level Pressure 30.27 in    
Wind  
Wind Speed 6 mph (WNW)    
Max Wind Speed 9 mph    
Max Gust Speed -    
Visibility 10 miles    
Events      
T = Trace of Precipitation, MM = Missing Value Source: NWS Daily Summary

Daily Weather History Graph

Daily Weather History Graph

Search for Another Location

Airport:

Trip Planner

Search our weather history database for the weather conditions in past years. The results will help you decide how hot, cold, wet, or windy it might be!

Date:

Astronomy

Mar. 07, 2013 Rise Set
Actual Time 6:52 AM EST 6:27 PM EST
Civil Twilight 6:25 AM EST 6:54 PM EST
Nautical Twilight 5:54 AM EST 7:25 PM EST
Astronomical Twilight 5:23 AM EST 7:56 PM EST
Moon 3:49 AM EST (3/7) 2:15 PM EST (3/7)
Length of Visible Light 12h 29m
Length of Day
11h 35m
Waning Crescent, 20% of the Moon is Illuminated
Mar 7
Waning Crescent
Mar 11
New
Mar 19
First Quarter
Mar 27
Full
Apr 3
Last Quarter

Hourly Weather History & Observations

Time (EST) Temp. Windchill Dew Point Humidity Pressure Visibility Wind Dir Wind Speed Gust Speed Precip Events Conditions
12:15 AM 32.9 °F 25.9 °F 28.8 °F 85% 30.18 in 10.0 mi West 8.1 mph - N/A   Overcast
12:35 AM 32.9 °F 27.5 °F 28.8 °F 85% 30.19 in 10.0 mi West 5.8 mph - N/A   Overcast
12:55 AM 32.9 °F 28.5 °F 28.9 °F 85% 30.19 in 10.0 mi West 4.6 mph - N/A   Overcast
1:15 AM 32.7 °F 29.6 °F 28.9 °F 86% 30.19 in 10.0 mi West 3.5 mph - N/A   Overcast
1:35 AM 32.5 °F - 28.9 °F 87% 30.19 in 7.0 mi Calm Calm - N/A   Overcast
1:55 AM 32.4 °F 26.0 °F 28.4 °F 85% 30.20 in 10.0 mi West 6.9 mph - N/A   Overcast
2:15 AM 32.4 °F 25.3 °F 28.4 °F 85% 30.21 in 10.0 mi West 8.1 mph - N/A   Overcast
2:35 AM 32.2 °F 25.8 °F 28.4 °F 86% 30.20 in 10.0 mi West 6.9 mph - N/A   Overcast
2:55 AM 32.2 °F 26.7 °F 28.0 °F 85% 30.20 in 10.0 mi West 5.8 mph - N/A   Overcast
3:15 AM 32.0 °F 28.7 °F 28.0 °F 85% 30.19 in 10.0 mi WNW 3.5 mph - N/A   Overcast
3:35 AM 32.0 °F 28.7 °F 28.0 °F 85% 30.20 in 10.0 mi WNW 3.5 mph - N/A   Overcast
3:55 AM 32.0 °F 26.4 °F 28.0 °F 85% 30.20 in 10.0 mi WNW 5.8 mph - N/A   Overcast
4:15 AM 32.0 °F 27.5 °F 27.5 °F 83% 30.21 in 10.0 mi WNW 4.6 mph - N/A   Overcast
4:35 AM 32.0 °F 27.5 °F 27.5 °F 83% 30.22 in 10.0 mi WNW 4.6 mph - N/A   Overcast
4:55 AM 32.0 °F 28.7 °F 27.5 °F 83% 30.22 in 10.0 mi WNW 3.5 mph - N/A   Overcast
5:15 AM 32.0 °F 26.4 °F 27.3 °F 83% 30.22 in 10.0 mi West 5.8 mph - N/A   Overcast
5:35 AM 32.0 °F 27.5 °F 27.5 °F 83% 30.22 in 10.0 mi WNW 4.6 mph - N/A   Overcast
5:55 AM 32.0 °F 27.5 °F 27.3 °F 83% 30.23 in 10.0 mi West 4.6 mph - N/A   Overcast
6:15 AM 32.0 °F 27.5 °F 27.5 °F 83% 30.24 in 10.0 mi West 4.6 mph - N/A   Overcast
6:35 AM 32.0 °F 26.4 °F 27.3 °F 83% 30.25 in 10.0 mi WNW 5.8 mph - N/A   Overcast
6:55 AM 32.0 °F 26.4 °F 27.5 °F 83% 30.26 in 10.0 mi West 5.8 mph - N/A   Overcast
7:15 AM 32.0 °F 28.7 °F 27.5 °F 83% 30.27 in 10.0 mi West 3.5 mph - N/A   Overcast
7:35 AM 32.0 °F 26.4 °F 27.3 °F 83% 30.28 in 10.0 mi West 5.8 mph - N/A   Overcast
7:55 AM 32.0 °F - 27.3 °F 83% 30.29 in 10.0 mi Calm Calm - N/A   Overcast
8:15 AM 32.0 °F 26.4 °F 27.7 °F 84% 30.29 in 10.0 mi West 5.8 mph - N/A   Overcast
8:35 AM 32.4 °F 26.0 °F 27.5 °F 82% 30.29 in 10.0 mi West 6.9 mph - N/A   Overcast
8:55 AM 32.9 °F 28.5 °F 27.5 °F 81% 30.30 in 10.0 mi West 4.6 mph - N/A   Overcast
9:15 AM 33.3 °F 27.1 °F 27.9 °F 81% 30.30 in 7.0 mi West 6.9 mph - N/A   Overcast
9:35 AM 33.8 °F 27.7 °F 28.0 °F 79% 30.30 in 7.0 mi West 6.9 mph - N/A   Overcast
9:55 AM 34.2 °F 28.2 °F 28.0 °F 78% 30.30 in 10.0 mi West 6.9 mph - N/A   Overcast
10:15 AM 34.9 °F 28.3 °F 28.4 °F 77% 30.30 in 10.0 mi West 8.1 mph - N/A   Overcast
10:35 AM 35.8 °F 28.8 °F 28.6 °F 75% 30.31 in 10.0 mi WNW 9.2 mph - N/A   Overcast
10:55 AM 36.3 °F 33.7 °F 28.9 °F 75% 30.30 in 10.0 mi NW 3.5 mph - N/A   Overcast
11:15 AM 37.4 °F 31.4 °F 29.5 °F 73% 30.30 in 10.0 mi West 8.1 mph - N/A   Overcast
11:55 AM 38.5 °F 32.7 °F 27.9 °F 66% 30.30 in 10.0 mi NW 8.1 mph - N/A   Overcast
12:15 PM 39.4 °F 34.5 °F 28.8 °F 66% 30.30 in 10.0 mi NNW 6.9 mph - N/A   Overcast
12:35 PM 39.2 °F 34.2 °F 27.7 °F 63% 30.30 in 10.0 mi WNW 6.9 mph - N/A   Overcast
12:55 PM 39.2 °F 34.2 °F 27.3 °F 62% 30.29 in 10.0 mi NW 6.9 mph - N/A   Overcast
1:15 PM 39.6 °F 33.5 °F 27.9 °F 63% 30.29 in 10.0 mi West 9.2 mph - N/A   Overcast
1:35 PM 39.2 °F 34.2 °F 27.5 °F 63% 30.28 in 10.0 mi WNW 6.9 mph - N/A   Overcast
1:55 PM 39.4 °F 33.2 °F 27.7 °F 63% 30.28 in 10.0 mi WNW 9.2 mph - N/A   Overcast
2:15 PM 39.2 °F 34.2 °F 27.5 °F 63% 30.27 in 10.0 mi NNW 6.9 mph - N/A   Overcast
2:35 PM 39.7 °F 34.9 °F 27.1 °F 61% 30.27 in 10.0 mi NNW 6.9 mph - N/A   Overcast
2:55 PM 39.7 °F 34.9 °F 27.1 °F 61% 30.27 in 10.0 mi NW 6.9 mph - N/A   Overcast
3:15 PM 39.6 °F 34.7 °F 27.7 °F 62% 30.28 in 10.0 mi NNW 6.9 mph - N/A   Overcast
3:35 PM 39.6 °F 35.4 °F 27.5 °F 62% 30.28 in 10.0 mi WNW 5.8 mph - N/A   Overcast
3:55 PM 39.6 °F 35.4 °F 27.5 °F 62% 30.27 in 10.0 mi NNW 5.8 mph - N/A   Overcast
4:15 PM 39.6 °F 34.0 °F 27.1 °F 61% 30.28 in 10.0 mi WNW 8.1 mph - N/A   Overcast
4:35 PM 39.6 °F 35.4 °F 27.3 °F 62% 30.29 in 10.0 mi WNW 5.8 mph - N/A   Overcast
4:55 PM 39.6 °F 35.4 °F 28.2 °F 64% 30.30 in 10.0 mi NW 5.8 mph - N/A   Overcast
5:15 PM 39.2 °F 33.6 °F 27.5 °F 63% 30.30 in 10.0 mi NW 8.1 mph - N/A   Overcast
5:35 PM 38.5 °F 35.0 °F 27.9 °F 66% 30.30 in 10.0 mi NW 4.6 mph - N/A   Overcast
5:55 PM 38.3 °F 35.9 °F 28.6 °F 68% 30.31 in 10.0 mi WNW 3.5 mph - N/A   Overcast
6:15 PM 37.6 °F 31.6 °F 28.2 °F 69% 30.31 in 10.0 mi West 8.1 mph - N/A   Overcast
6:55 PM 36.5 °F 31.0 °F 28.9 °F 74% 30.31 in 10.0 mi West 6.9 mph - N/A   Mostly Cloudy
8:35 PM 33.8 °F 30.8 °F 27.9 °F 79% 30.33 in 10.0 mi West 3.5 mph - N/A   Overcast
8:55 PM 34.7 °F 28.8 °F 28.2 °F 77% 30.33 in 10.0 mi WNW 6.9 mph - N/A   Overcast
9:15 PM 35.1 °F 28.6 °F 28.4 °F 77% 30.33 in 10.0 mi WNW 8.1 mph - N/A   Overcast
9:55 PM 35.1 °F 30.1 °F 28.2 °F 76% 30.33 in 10.0 mi WNW 5.8 mph - N/A   Overcast
10:15 PM 35.1 °F 28.6 °F 27.7 °F 74% 30.34 in 10.0 mi WNW 8.1 mph - N/A   Overcast
10:35 PM 34.9 °F 30.8 °F 27.5 °F 74% 30.34 in 10.0 mi NW 4.6 mph - N/A   Overcast
10:55 PM 34.7 °F 31.8 °F 27.5 °F 75% 30.34 in 10.0 mi NW 3.5 mph - N/A   Overcast
11:15 PM 34.2 °F 31.2 °F 27.5 °F 77% 30.34 in 10.0 mi NW 3.5 mph - N/A   Overcast
11:35 PM 33.8 °F 30.8 °F 27.3 °F 77% 30.33 in 10.0 mi WNW 3.5 mph - N/A   Overcast
11:55 PM 32.5 °F - 27.1 °F 80% 30.33 in 10.0 mi Calm Calm - N/A   Overcast